createdAt,value
2018-09-25T00:00:49.095Z,10.00
2018-09-25T00:03:23.353Z,10.10
2018-09-25T00:05:58.178Z,10.10
2018-09-25T00:08:33.983Z,10.20
2018-09-25T00:14:34.417Z,10.40
2018-09-25T00:17:10.243Z,10.40
2018-09-25T00:20:14.888Z,10.50
2018-09-25T00:23:10.167Z,10.50
2018-09-25T00:25:46.098Z,10.40
2018-09-25T00:28:23.588Z,10.30
2018-09-25T00:31:04.517Z,10.20
2018-09-25T00:33:40.184Z,10.10
2018-09-25T00:36:16.033Z,10.00
2018-09-25T00:38:52.057Z,10.00
2018-09-25T00:41:26.592Z,9.90
2018-09-25T00:44:03.190Z,10.00
2018-09-25T00:46:37.817Z,10.10
2018-09-25T00:49:13.160Z,10.20
2018-09-25T00:51:47.246Z,10.40
2018-09-25T00:54:23.559Z,10.50
2018-09-25T00:56:58.504Z,10.60
2018-09-25T00:59:38.851Z,10.70
2018-09-25T01:02:13.563Z,10.60
2018-09-25T01:04:47.861Z,10.40
2018-09-25T01:07:23.092Z,10.20
2018-09-25T01:10:04.428Z,10.10
2018-09-25T01:15:28.157Z,9.90
2018-09-25T01:18:02.711Z,9.80
2018-09-25T01:20:37.584Z,9.70
2018-09-25T01:23:12.285Z,9.70
2018-09-25T01:25:46.883Z,9.70
2018-09-25T01:28:23.819Z,9.70
2018-09-25T01:30:58.291Z,9.70
2018-09-25T01:33:34.934Z,9.60
2018-09-25T01:36:09.508Z,9.60
2018-09-25T01:38:46.401Z,9.60
2018-09-25T01:41:23.794Z,9.60
2018-09-25T01:44:00.668Z,9.70
2018-09-25T01:46:36.020Z,9.80
2018-09-25T01:49:10.448Z,9.80
2018-09-25T01:51:53.837Z,9.90
2018-09-25T01:54:32.593Z,10.00
2018-09-25T01:57:08.760Z,10.00
2018-09-25T01:59:57.216Z,10.00
2018-09-25T02:02:31.717Z,10.00
2018-09-25T02:05:11.864Z,10.00
2018-09-25T02:07:48.011Z,10.00
2018-09-25T02:10:31.669Z,10.00
2018-09-25T02:13:06.599Z,10.10
2018-09-25T02:15:41.859Z,10.10
2018-09-25T02:18:16.457Z,10.10
2018-09-25T02:20:52.142Z,10.10
2018-09-25T02:23:26.069Z,10.10
2018-09-25T02:28:41.648Z,10.20
2018-09-25T02:31:16.704Z,10.20
2018-09-25T02:33:58.361Z,10.30
2018-09-25T02:36:35.406Z,10.30
2018-09-25T02:39:14.848Z,10.30
2018-09-25T02:41:52.388Z,10.30
2018-09-25T02:44:30.640Z,10.30
2018-09-25T02:47:07.995Z,10.20
2018-09-25T02:52:49.071Z,10.10
2018-09-25T02:55:26.820Z,10.10
2018-09-25T02:58:02.889Z,10.10
2018-09-25T03:00:43.243Z,10.20
2018-09-25T03:03:22.091Z,10.20
2018-09-25T03:05:58.208Z,10.30
2018-09-25T03:08:33.206Z,10.40
2018-09-25T03:11:10.158Z,10.40
2018-09-25T03:13:45.269Z,10.50
2018-09-25T03:16:23.890Z,10.60
2018-09-25T03:18:58.859Z,10.70
2018-09-25T03:24:53.636Z,10.80
2018-09-25T03:27:29.896Z,10.90
2018-09-25T03:30:05.577Z,10.90
2018-09-25T03:32:44.599Z,10.80
2018-09-25T03:35:19.575Z,10.70
2018-09-25T03:37:56.557Z,10.70
2018-09-25T03:43:52.117Z,10.60
2018-09-25T03:46:28.147Z,10.40
2018-09-25T03:49:04.027Z,10.40
2018-09-25T03:51:43.114Z,10.30
2018-09-25T03:54:18.360Z,10.20
2018-09-25T03:56:55.509Z,10.20
2018-09-25T03:59:32.989Z,10.10
2018-09-25T04:02:08.727Z,10.10
2018-09-25T04:08:23.972Z,10.00
2018-09-25T04:11:18.752Z,10.10
2018-09-25T04:13:53.767Z,10.10
2018-09-25T04:16:30.632Z,10.20
2018-09-25T04:19:08.828Z,10.30
2018-09-25T04:21:46.324Z,10.40
2018-09-25T04:24:32.134Z,10.50
2018-09-25T04:27:11.890Z,10.60
2018-09-25T04:29:49.467Z,10.60
2018-09-25T04:32:25.507Z,10.70
2018-09-25T04:35:02.267Z,10.70
2018-09-25T04:37:37.574Z,10.80
2018-09-25T04:40:13.237Z,10.70
2018-09-25T04:42:51.586Z,10.60
2018-09-25T04:45:28.511Z,10.40
2018-09-25T04:48:04.848Z,10.30
2018-09-25T04:50:41.258Z,10.20
2018-09-25T04:53:17.834Z,10.10
2018-09-25T04:55:54.632Z,10.10
2018-09-25T04:58:40.942Z,10.10
2018-09-25T05:01:18.376Z,10.10
2018-09-25T05:03:55.443Z,10.20
2018-09-25T05:06:30.711Z,10.20
2018-09-25T05:09:05.916Z,10.30
2018-09-25T05:17:20.998Z,10.30
2018-09-25T05:20:01.030Z,10.40
2018-09-25T05:22:39.024Z,10.40
2018-09-25T05:25:14.706Z,10.40
2018-09-25T05:27:49.421Z,10.40
2018-09-25T05:30:32.080Z,10.40
2018-09-25T05:33:11.324Z,10.40
2018-09-25T05:35:46.699Z,10.40
2018-09-25T05:38:26.818Z,10.40
2018-09-25T05:41:03.064Z,10.40
2018-09-25T05:43:42.181Z,10.30
2018-09-25T05:46:27.026Z,10.20
2018-09-25T05:49:07.662Z,10.10
2018-09-25T05:51:43.691Z,10.10
2018-09-25T05:57:09.123Z,10.00
2018-09-25T05:59:45.113Z,10.10
2018-09-25T06:02:22.510Z,10.20
2018-09-25T06:04:59.692Z,10.20
2018-09-25T06:07:36.098Z,10.20
2018-09-25T06:37:50.093Z,10.60
2018-09-25T06:43:09.791Z,10.80
2018-09-25T06:45:43.997Z,10.50
2018-09-25T06:48:24.862Z,10.30
2018-09-25T06:51:05.950Z,10.10
2018-09-25T06:53:43.270Z,9.90
2018-09-25T06:56:17.853Z,9.90
2018-09-25T06:58:51.474Z,9.90
2018-09-25T07:01:25.589Z,9.80
2018-09-25T07:03:59.540Z,9.80
2018-09-25T07:06:33.851Z,9.80
2018-09-25T07:09:08.025Z,9.80
2018-09-25T07:11:42.468Z,9.80
2018-09-25T07:14:16.722Z,9.90
2018-09-25T07:16:50.418Z,10.00
2018-09-25T07:19:24.370Z,10.10
2018-09-25T07:22:05.308Z,10.20
2018-09-25T07:24:42.431Z,10.40
2018-09-25T07:27:19.622Z,10.50
2018-09-25T07:29:56.404Z,10.60
2018-09-25T07:32:30.070Z,10.70
2018-09-25T07:35:04.800Z,10.90
2018-09-25T07:37:39.818Z,11.00
2018-09-25T07:40:28.062Z,11.10
2018-09-25T07:43:01.873Z,11.30
2018-09-25T07:45:36.999Z,11.30
2018-09-25T07:48:11.387Z,11.30
2018-09-25T07:50:47.850Z,11.40
2018-09-25T07:53:22.554Z,11.40
2018-09-25T07:55:57.180Z,11.40
2018-09-25T07:58:32.921Z,11.60
2018-09-25T08:01:15.899Z,11.70
2018-09-25T08:03:50.759Z,11.70
2018-09-25T08:06:25.764Z,11.80
2018-09-25T08:09:00.543Z,11.90
2018-09-25T08:11:35.039Z,11.90
2018-09-25T08:14:10.048Z,12.00
2018-09-25T08:16:44.182Z,12.00
2018-09-25T08:19:18.669Z,12.00
2018-09-25T08:21:54.238Z,12.00
2018-09-25T08:24:28.801Z,12.10
2018-09-25T08:27:03.256Z,12.20
2018-09-25T08:30:00.130Z,12.20
2018-09-25T08:32:33.898Z,12.30
2018-09-25T08:35:08.941Z,12.40
2018-09-25T08:37:43.584Z,12.50
2018-09-25T08:40:30.621Z,12.60
2018-09-25T08:43:04.491Z,12.60
2018-09-25T08:45:39.805Z,12.70
2018-09-25T08:48:14.960Z,12.70
2018-09-25T08:50:49.014Z,12.80
2018-09-25T08:53:24.237Z,13.00
2018-09-25T08:55:59.375Z,13.10
2018-09-25T08:58:33.170Z,13.20
2018-09-25T09:01:07.959Z,13.30
2018-09-25T09:03:42.388Z,13.30
2018-09-25T09:06:16.833Z,13.30
2018-09-25T09:08:53.169Z,13.30
2018-09-25T09:11:32.573Z,13.50
2018-09-25T09:14:07.243Z,13.60
2018-09-25T09:16:42.210Z,13.90
2018-09-25T09:19:22.062Z,14.10
2018-09-25T09:21:55.926Z,14.10
2018-09-25T09:24:29.790Z,14.20
2018-09-25T09:27:04.012Z,14.20
2018-09-25T09:29:37.716Z,14.20
2018-09-25T09:32:12.379Z,14.20
2018-09-25T09:34:46.241Z,14.10
2018-09-25T09:37:20.914Z,14.00
2018-09-25T09:40:15.448Z,13.90
2018-09-25T09:42:49.659Z,13.80
2018-09-25T09:48:18.748Z,13.70
2018-09-25T09:50:53.607Z,13.70
2018-09-25T09:53:27.807Z,13.70
2018-09-25T09:56:02.927Z,13.80
2018-09-25T09:58:37.299Z,13.80
2018-09-25T10:01:39.491Z,13.90
2018-09-25T10:04:13.513Z,13.90
2018-09-25T10:06:54.688Z,14.10
2018-09-25T10:09:39.508Z,14.30
2018-09-25T10:12:14.048Z,14.70
2018-09-25T10:14:48.970Z,15.20
2018-09-25T10:17:24.456Z,15.30
2018-09-25T10:20:13.394Z,15.20
2018-09-25T10:22:54.297Z,15.10
2018-09-25T10:25:33.323Z,14.90
2018-09-25T10:28:15.872Z,14.80
2018-09-25T10:30:55.067Z,14.70
2018-09-25T10:33:34.715Z,14.70
2018-09-25T10:36:08.544Z,14.60
2018-09-25T10:38:44.003Z,14.60
2018-09-25T10:41:18.209Z,14.70
2018-09-25T10:43:59.113Z,14.60
2018-09-25T10:49:20.837Z,14.60
2018-09-25T10:51:58.095Z,14.60
2018-09-25T10:54:32.231Z,14.60
2018-09-25T10:57:05.907Z,14.70
2018-09-25T11:02:22.369Z,15.10
2018-09-25T11:04:56.429Z,15.40
2018-09-25T11:07:30.706Z,15.40
2018-09-25T11:10:23.759Z,15.70
2018-09-25T11:12:59.034Z,15.70
2018-09-25T11:15:49.031Z,15.60
2018-09-25T11:18:31.379Z,15.50
2018-09-25T11:21:05.803Z,15.30
2018-09-25T11:23:48.095Z,15.20
2018-09-25T11:26:22.448Z,15.10
2018-09-25T11:28:56.422Z,15.10
2018-09-25T11:31:41.289Z,15.00
2018-09-25T11:34:15.801Z,15.00
2018-09-25T11:36:50.019Z,15.00
2018-09-25T11:39:24.798Z,15.00
2018-09-25T11:41:58.595Z,14.90
2018-09-25T11:44:34.515Z,14.90
2018-09-25T11:47:10.116Z,15.00
2018-09-25T11:49:44.613Z,15.00
2018-09-25T11:52:19.011Z,14.90
2018-09-25T11:54:53.381Z,14.90
2018-09-25T11:57:27.206Z,14.90
2018-09-25T12:00:11.468Z,14.90
2018-09-25T12:02:47.829Z,14.90
2018-09-25T12:05:25.267Z,14.80
2018-09-25T12:07:59.255Z,14.90
2018-09-25T12:11:07.551Z,14.90
2018-09-25T12:13:46.105Z,15.00
2018-09-25T12:16:19.928Z,15.00
2018-09-25T12:18:53.892Z,14.90
2018-09-25T12:21:27.830Z,14.90
2018-09-25T12:24:02.455Z,14.90
2018-09-25T12:26:36.939Z,14.90
2018-09-25T12:29:13.369Z,14.90
2018-09-25T12:31:47.253Z,15.00
2018-09-25T12:34:25.513Z,15.00
2018-09-25T12:37:06.178Z,15.00
2018-09-25T12:39:40.043Z,15.00
2018-09-25T12:42:14.452Z,15.10
2018-09-25T12:44:49.778Z,15.10
2018-09-25T12:47:24.269Z,15.10
2018-09-25T12:49:59.303Z,15.10
2018-09-25T12:52:34.193Z,15.30
2018-09-25T12:55:08.123Z,15.50
2018-09-25T12:57:43.013Z,15.50
2018-09-25T13:03:00.766Z,15.40
2018-09-25T13:05:35.372Z,15.30
2018-09-25T13:08:10.142Z,15.30
2018-09-25T13:10:44.223Z,15.20
2018-09-25T13:13:19.206Z,15.20
2018-09-25T13:15:55.388Z,15.30
2018-09-25T13:18:29.911Z,15.40
2018-09-25T13:23:42.903Z,15.40
2018-09-25T13:26:25.540Z,15.40
2018-09-25T13:29:01.127Z,15.40
2018-09-25T13:31:41.387Z,15.60
2018-09-25T13:34:21.119Z,15.70
2018-09-25T13:36:55.521Z,15.70
2018-09-25T13:39:30.915Z,15.60
2018-09-25T13:42:05.705Z,15.60
2018-09-25T13:44:43.221Z,15.50
2018-09-25T13:47:20.295Z,15.50
2018-09-25T13:50:29.965Z,15.40
2018-09-25T13:53:06.719Z,15.40
2018-09-25T13:55:41.833Z,15.40
2018-09-25T13:58:17.213Z,15.40
2018-09-25T14:00:51.765Z,15.40
2018-09-25T14:03:26.422Z,15.30
2018-09-25T14:06:00.878Z,15.20
2018-09-25T14:08:38.798Z,15.20
2018-09-25T14:14:07.034Z,15.00
2018-09-25T14:19:30.860Z,14.90
2018-09-25T14:22:05.868Z,15.00
2018-09-25T14:24:44.856Z,14.90
2018-09-25T14:27:19.643Z,14.90
2018-09-25T14:30:07.068Z,14.80
2018-09-25T14:35:21.032Z,14.80
2018-09-25T14:37:59.255Z,14.70
2018-09-25T14:40:52.557Z,14.70
2018-09-25T14:43:27.235Z,14.70
2018-09-25T14:48:42.206Z,14.50
2018-09-25T14:51:23.281Z,14.40
2018-09-25T14:53:58.715Z,14.40
2018-09-25T14:56:41.646Z,14.30
2018-09-25T14:59:18.878Z,14.30
2018-09-25T15:01:56.948Z,14.30
2018-09-25T15:04:37.596Z,14.20
2018-09-25T15:10:26.963Z,14.20
2018-09-25T15:13:02.128Z,14.20
2018-09-25T15:18:24.770Z,14.30
2018-09-25T15:21:01.172Z,14.30
2018-09-25T15:23:37.583Z,14.20
2018-09-25T15:26:13.475Z,14.20
2018-09-25T15:28:50.262Z,14.20
2018-09-25T15:31:26.164Z,14.20
2018-09-25T15:34:00.903Z,14.20
2018-09-25T15:36:36.430Z,14.30
2018-09-25T15:39:19.647Z,14.60
2018-09-25T15:41:58.313Z,15.20
2018-09-25T15:47:21.159Z,15.90
2018-09-25T15:59:02.840Z,16.00
2018-09-25T16:01:40.348Z,15.60
2018-09-25T16:06:54.813Z,15.10
2018-09-25T16:09:28.727Z,14.90
2018-09-25T16:12:07.236Z,14.70
2018-09-25T16:17:24.475Z,14.40
2018-09-25T16:20:02.653Z,14.20
2018-09-25T16:22:42.799Z,14.10
2018-09-25T16:25:16.594Z,14.00
2018-09-25T16:27:56.539Z,13.90
2018-09-25T16:30:30.507Z,13.80
2018-09-25T16:33:04.438Z,13.70
2018-09-25T16:35:38.222Z,13.60
2018-09-25T16:38:16.200Z,13.60
2018-09-25T16:40:50.391Z,13.50
2018-09-25T16:43:24.181Z,13.40
2018-09-25T16:48:52.339Z,13.30
2018-09-25T16:51:41.027Z,13.20
2018-09-25T16:54:15.529Z,13.20
2018-09-25T16:56:49.866Z,13.10
2018-09-25T16:59:23.910Z,13.00
2018-09-25T17:02:07.246Z,13.00
2018-09-25T17:07:22.535Z,12.80
2018-09-25T17:10:03.542Z,12.80
2018-09-25T17:12:41.164Z,12.70
2018-09-25T17:17:55.976Z,12.60
2018-09-25T17:24:19.564Z,12.60
2018-09-25T17:26:59.349Z,12.50
2018-09-25T17:29:34.747Z,12.50
2018-09-25T17:32:09.566Z,12.40
2018-09-25T17:34:49.811Z,12.40
2018-09-25T17:37:23.584Z,12.40
2018-09-25T17:40:07.515Z,12.40
2018-09-25T17:45:37.062Z,12.40
2018-09-25T17:53:51.744Z,12.30
2018-09-25T17:56:36.368Z,12.30
2018-09-25T17:59:28.026Z,12.30
2018-09-25T18:05:00.472Z,12.30
2018-09-25T18:11:02.474Z,12.30
2018-09-25T18:13:43.718Z,12.30
2018-09-25T18:16:28.955Z,12.30
2018-09-25T18:19:10.254Z,12.30
2018-09-25T18:30:19.185Z,12.20
2018-09-25T20:36:43.600Z,12.10
2018-09-25T20:39:26.028Z,12.10
2018-09-25T20:42:06.617Z,12.10
2018-09-25T20:44:44.771Z,12.10
2018-09-25T20:47:23.494Z,12.00
2018-09-25T20:50:09.550Z,12.00
2018-09-25T20:52:54.594Z,12.00
2018-09-25T21:22:51.683Z,11.90
2018-09-25T21:25:40.615Z,11.80
2018-09-25T21:33:55.451Z,11.80
2018-09-25T21:54:22.540Z,11.80
2018-09-25T22:05:38.331Z,11.80
2018-09-25T22:08:26.990Z,11.80
2018-09-25T22:34:24.612Z,11.60
2018-09-25T22:45:22.460Z,11.60
2018-09-25T22:52:03.145Z,11.70
2018-09-25T22:54:45.169Z,11.70
2018-09-25T23:00:23.434Z,11.70
2018-09-25T23:14:33.297Z,11.60
2018-09-25T23:17:18.216Z,11.60
2018-09-25T23:20:01.703Z,11.60
2018-09-25T23:25:25.584Z,11.70
2018-09-25T23:28:10.691Z,11.70
2018-09-25T23:30:53.540Z,11.70
2018-09-25T23:50:32.549Z,12.10
